Weather observations for the past three days for
Frederick Municipal Airport
Imperial (Metric)
Date Time (edt) Wind (mph) Vis. (mi.) Weather Sky Cond. Temperature (ºF) Relative Humidity Wind Chill (°F) Heat Index (°F) Pressure Precipitation (in)
Air Dwpt 6 hour altimeter (in) sea level (mb) 1 hr 3 hr 6 hr
Max. Min.
06 08:47 S 10 7.00 Light Rain FEW045 SCT075 BKN090 60.8 60.8 100% 29.82 0.0
06 07:47 S 8 7.00 Light Rain FEW055 OVC090 62.6 59 88% 29.83 0.0
06 06:47 S 13 10.00 Fair CLR 64.4 57.2 78% 29.81 0.0
06 06:15 S 13 9.00 Mostly Cloudy FEW050 SCT070 BKN090 64.6 56.8 76% 29.79 0.0
06 05:55 S 14 G 23 9.00 Overcast FEW075 OVC095 66.2 54.9 67% 29.79 0.0
06 05:35 S 15 G 25 9.00 Overcast BKN100 OVC130 66.9 54.5 65% 29.79 0.0
06 05:15 S 16 G 23 9.00 Mostly Cloudy FEW095 BKN140 67.6 53.4 61% 29.79 0.0
06 04:55 S 12 G 20 10.00 A Few Clouds FEW090 67.8 52.9 59% 29.79 0.0
06 04:35 S 13 9.00 Partly Cloudy SCT100 68 52.7 58% 29.8 0.0
06 04:15 S 16 G 21 9.00 Mostly Cloudy BKN100 68 52.7 58% 29.8 0.0
06 03:55 S 15 G 21 9.00 Fair CLR 68 52.2 57% 29.8 0.0
06 03:35 S 14 10.00 Fair CLR 68.2 51.8 56% 29.8 0.0
06 03:15 S 13 10.00 A Few Clouds FEW100 68.7 51.4 54% 29.8 0.0
06 02:55 S 13 10.00 Partly Cloudy SCT100 69.1 51.1 53% 29.8 0.0
06 02:35 S 12 G 18 10.00 A Few Clouds FEW110 69.3 50.9 52% 29.81 0.0
06 02:15 S 12 10.00 Mostly Cloudy BKN110 BKN130 69.8 50.7 51% 29.82 0.0
06 01:55 S 14 G 20 10.00 Overcast FEW110 BKN130 OVC160 70.7 50.5 77 70.7 49% 29.82 0.0
06 01:35 S 14 G 21 10.00 Overcast BKN110 OVC160 70.9 50.4 48% 29.83 0.0
06 01:15 S 14 G 21 10.00 Mostly Cloudy SCT110 BKN160 71.1 49.8 47% 29.83 0.0
06 00:35 S 13 9.00 Overcast OVC160 71.6 49.3 45% 29.83 0.0
06 00:15 SW 13 9.00 Light Rain BKN160 71.4 48.6 44% 29.84 0.0
05 23:55 S 12 8.00 Light Rain BKN170 72 46.9 41% 29.83 0.0
05 23:35 S 15 G 21 1.75 Light Rain BKN170 72.7 46.2 39% 29.83 0.0
05 23:15 S 10 9.00 Light Rain SCT170 SCT200 72.1 45.1 38% 29.83 0.0
05 22:55 S 12 9.00 Light Rain CLR 73.4 44.2 35% 29.83 0.0
05 22:35 S 15 9.00 Light Rain CLR 73.6 44.1 35% 29.83 0.0
05 22:15 S 14 G 20 8.00 Light Rain CLR 73.6 43.5 34% 29.83 0.0
05 21:55 S 13 G 21 8.00 Light Rain CLR 74.5 42.6 32% 29.82 0.0
05 21:35 S 13 G 18 9.00 Light Rain CLR 74.7 41.5 30% 29.82 0.0
05 21:15 S 9 9.00 Light Rain CLR 74.3 39.9 29% 29.82 0.0
05 20:45 S 16 10.00 Fair CLR 75.2 39.2 27% 77 29.8 0.0
05 19:45 S 16 10.00 Fair CLR 77 41 28% 78 29.79 0.0
05 18:45 S 16 G 31 10.00 Fair CLR 80.6 42.8 26% 79 29.79 0.0
05 17:45 S 16 G 31 10.00 Fair CLR 84.2 46.4 27% 82 29.79 0.0
05 16:45 S 16 G 31 10.00 Fair CLR 84.2 46.4 27% 82 29.78 0.0
05 15:45 S 16 G 31 10.00 Fair CLR 84.2 46.4 27% 82 29.79 0.0
05 14:45 S 16 G 28 10.00 Fair CLR 84.2 46.4 27% 82 29.82 0.0
05 13:45 S 16 10.00 Fair CLR 82.4 48.2 30% 81 29.84 0.0
05 12:45 S 16 10.00 Fair CLR 82.4 48.2 30% 81 29.86 0.0
05 11:47 SW 15 G 288 10.00 Fair CLR 80.6 48.2 32% 80 29.88 0.0
05 10:47 SW 17 G 22 10.00 Fair CLR 78.8 48.2 34% 79 29.87 0.0
05 09:47 SW 10 10.00 Fair CLR 71.6 51.8 50% 29.88 0.0
05 08:57 S 9 10.00 Fair CLR 66.2 50 56% 29.9 0.0
05 07:47 SW 5 10.00 Fair CLR 59 51.8 77% 29.9 0.0
05 06:47 Calm 10.00 Fair CLR 51.8 51.8 100% 29.89 0.0
05 06:15 Calm 8.00 Fair CLR 52.5 50.2 92% 29.87 0.0
05 05:55 Calm 9.00 Light Rain CLR 50.4 49.1 95% 29.87 0.0
05 05:35 Calm 10.00 Fair CLR 50.7 49.6 96% 29.87 0.0
05 05:15 S 3 10.00 Partly Cloudy SCT090 54.7 50.4 85% 29.87 0.0
05 04:55 SW 3 10.00 Partly Cloudy FEW085 SCT140 52.2 49.6 91% 29.86 0.0
05 04:35 S 3 10.00 A Few Clouds FEW140 53.1 50 89% 29.86 0.0
05 04:15 S 3 10.00 Fair CLR 54.9 51.3 88% 29.86 0.0
05 03:55 Calm 10.00 Fair CLR 54.1 50 86% 29.85 0.0
05 03:35 SW 5 9.00 Light Rain FEW140 55.2 49.8 82% 29.85 0.0
05 03:15 SW 3 10.00 Mostly Cloudy FEW110 BKN140 56.5 50.2 80% 29.85 0.0
05 02:55 SW 3 10.00 Partly Cloudy SCT100 SCT140 55.2 49.5 81% 29.85 0.0
05 02:35 S 3 9.00 Light Rain FEW140 59.2 49.3 70% 29.85 0.0
05 02:15 SW 5 10.00 Fair CLR 55.9 49.1 78% 29.85 0.0
05 01:55 S 5 10.00 Light Rain CLR 57.6 48.9 72 57 73% 29.85 0.0
05 01:35 S 3 10.00 Fair CLR 59.5 48.7 68% 29.85 0.0
05 01:15 S 6 10.00 Fair CLR 61.5 48.7 63% 29.85 0.0
05 00:55 S 9 10.00 A Few Clouds FEW160 61.9 48.7 62% 29.85 0.0
05 00:35 S 9 10.00 Partly Cloudy SCT160 62.2 48.4 61% 29.85 0.0
05 00:15 S 10 10.00 Mostly Cloudy BKN150 63.3 47.8 57% 29.85 0.0
04 23:55 SW 9 10.00 Mostly Cloudy BKN150 63.7 47.7 56% 29.84 0.0
04 23:35 S 9 10.00 Mostly Cloudy BKN150 63.5 47.5 56% 29.84 0.0
04 23:15 S 8 10.00 Partly Cloudy SCT140 63.1 47.7 57% 29.85 0.0
04 22:55 S 8 10.00 Fair CLR 64 47.5 55% 29.85 0.0
04 22:35 S 8 10.00 Fair CLR 65.3 46.9 52% 29.85 0.0
04 22:15 S 7 10.00 Fair CLR 64.8 47.1 53% 29.84 0.0
04 21:55 S 8 10.00 Partly Cloudy FEW095 SCT130 67.8 46.4 46% 29.84 0.0
04 21:35 S 9 10.00 Mostly Cloudy BKN090 69.3 46.2 44% 29.84 0.0
04 21:15 S 9 9.00 Mostly Cloudy BKN090 70.2 45.5 41% 29.83 0.0
04 20:47 S 12 10.00 Partly Cloudy SCT090 69.8 44.6 40% 29.82 0.0
04 19:45 S 9 10.00 Mostly Cloudy BKN080 71.6 42.8 36% 29.81 0.0
04 18:52 S 14 G 20 10.00 Fair CLR 75.2 42.8 31% 77 29.81 0.0
04 17:45 S 9 10.00 Fair CLR 75.2 42.8 31% 77 29.81 0.0
04 16:47 S 12 10.00 Fair CLR 77 42.8 30% 78 29.81 0.0
04 15:52 S 9 10.00 Fair CLR 77 42.8 30% 78 29.83 0.0
04 14:52 SW 12 G 16 10.00 Fair CLR 73.4 41 31% 29.86 0.0
04 13:47 SW 8 G 20 10.00 Fair CLR 73.4 41 31% 29.89 0.0
04 12:58 SW 8 10.00 Fair CLR 71.6 39.2 31% 29.91 0.0
04 11:47 SW 10 10.00 Fair CLR 69.8 39.2 33% 29.94 0.0
04 10:47 S 12 10.00 Fair CLR 66.2 37.4 35% 29.95 0.0
04 09:47 SW 9 10.00 Fair CLR 62.6 37.4 39% 29.96 0.0
04 08:47 SW 8 10.00 Fair CLR 57.2 39.2 51% 29.98 0.0
04 07:47 Calm 10.00 Fair CLR 46.4 39.2 76% 29.98 0.0
04 06:47 Calm 10.00 Overcast OVC090 46.4 39.2 76% 29.98 0.0
04 06:15 Calm 10.00 Overcast BKN090 OVC130 45.5 37 72% 29.99 0.0
04 05:55 S 3 10.00 Overcast BKN100 OVC120 45.1 37.2 74% 29.99 0.0
04 05:35 S 3 10.00 Overcast BKN100 OVC130 43.9 40.3 87% 29.99 0.0
04 04:55 Calm 10.00 Overcast OVC090 42.6 41.4 95% 29.99 0.0
04 04:35 Calm 10.00 Overcast OVC085 42.6 40.6 93% 30 0.0
04 04:15 Calm 10.00 Overcast OVC085 41.5 41 98% 30 0.0
04 03:55 Calm 10.00 Overcast OVC090 40.6 40.3 99% 30 0.0
04 03:35 Calm 10.00 Overcast OVC100 40.5 39.7 97% 30 0.0
04 03:15 Calm 10.00 Mostly Cloudy BKN100 39.9 38.7 95% 30 0.0
04 02:55 Calm 10.00 A Few Clouds FEW160 38.1 37.6 98% 30 0.0
04 02:35 Calm 10.00 Partly Cloudy SCT160 38.5 37.9 98% 30 0.0
04 02:15 Calm 10.00 Mostly Cloudy BKN160 39.2 37.4 93% 30.01 0.0
04 01:55 Calm 10.00 A Few Clouds FEW160 39.6 35.6 57 39 86% 30.01 0.0
04 01:35 SE 3 10.00 Fair CLR 40.6 38.8 93% 30.01 0.0
04 01:15 S 3 10.00 Fair CLR 41.2 37.8 88% 30.01 0.0
04 00:55 Calm 10.00 Fair CLR 41.7 37.2 84% 30.01 0.0
04 00:35 Calm 10.00 Fair CLR 39 36.5 91% 30.01 0.0
04 00:15 S 3 9.00 Fair CLR 42.1 37.4 84% 30.01 0.0
03 23:55 Calm 8.00 Fair CLR 41.7 37.9 87% 30 0.0
03 23:35 Calm 9.00 Fair CLR 42.4 37.2 82% 30 0.0
03 23:15 Calm 9.00 Fair CLR 43.7 37.9 80% 30 0.0
03 22:55 Calm 5.00 Fair with Haze CLR 43.2 38.1 82% 30 0.0
03 22:35 Calm 8.00 Fair CLR 43 35.8 76% 30 0.0
03 22:15 SE 5 7.00 Fair CLR 46.2 34.9 65% 45 29.99 0.0
03 21:55 Calm 6.00 Fair with Haze CLR 45.7 34.3 65% 29.99 0.0
03 21:35 SE 5 8.00 Fair CLR 48.4 34.2 58% 47 29.98 0.0
03 21:15 SE 3 9.00 Fair CLR 50.9 31.8 48% 29.98 0.0
03 20:47 Calm 10.00 Fair CLR 51.8 32 47% 29.98 0.0
03 19:52 W 6 10.00 Fair CLR 57.2 26.6 31% 29.96 0.0
03 18:45 W 8 10.00 Fair CLR 60.8 26.6 27% 29.95 0.0
03 17:45 W 13 10.00 Fair CLR 62.6 26.6 25% 29.96 0.0
03 16:45 NW 14 G 20 10.00 A Few Clouds FEW090 62.6 26.6 25% 29.96 0.0
03 15:47 NW 9 10.00 Fair CLR 62.6 28.4 27% 29.98 0.0
03 14:47 NW 7 G 18 10.00 A Few Clouds FEW080 60.8 26.6 27% 30 0.0
03 13:47 W 12 10.00 Partly Cloudy SCT075 59 28.4 31% 30.02 0.0
03 12:47 NW 13 G 24 10.00 Partly Cloudy SCT070 57.2 26.6 31% 30.03 0.0
03 11:47 NW 17 G 25 10.00 Mostly Cloudy BKN060 51.8 26.6 38% 30.06 0.0
03 10:47 NW 17 G 25 10.00 Fair CLR 51.8 26.6 38% 30.06 0.0
Date Time (edt) Wind (mph) Vis. (mi.) Weather Sky Cond. Air Dwpt Max. Min. Relative Humidity Wind Chill (°F) Heat Index (°F) altimeter (in) sea level (mb) 1 hr 3 hr 6 hr
6 hour
Temperature (ºF) Pressure Precipitation (in)